Gibb River Airport


Codes: YGIB/GBV
Name: Gibb River Airport
City:
Country: Australia
Elevation: 509 ft.

Photos at Gibb River Airport


   Photos courtesy of SpottingLog. You can add your own sightings and photos by signing up for a free trial today.



No photos found.

Weather at Gibb River Airport


Time (UTC)DescriptionTempratureWindCloud coverageVisibilityPressureHumidity
21-Feb-2024 03:00Light Rain29°C18 mph, NE96%10000m1005hPa65%
21-Feb-2024 06:00Light Rain29°C20 mph, NE96%10000m1005hPa66%
21-Feb-2024 09:00Light Rain28°C16 mph, NE99%10000m1005hPa69%
21-Feb-2024 12:00Light Rain25°C11 mph, N100%10000m1008hPa85%
21-Feb-2024 15:00Overcast Clouds24°C13 mph, N100%10000m1009hPa90%
21-Feb-2024 18:00Overcast Clouds24°C9 mph, N100%10000m1009hPa91%
21-Feb-2024 21:00Overcast Clouds23°C9 mph, NE100%10000m1010hPa94%
22-Feb-2024 00:00Overcast Clouds26°C16 mph, N100%10000m1011hPa77%
22-Feb-2024 03:00Overcast Clouds31°C16 mph, N99%10000m1010hPa54%
22-Feb-2024 06:00Overcast Clouds32°C16 mph, NW99%10000m1007hPa49%
22-Feb-2024 09:00Light Rain30°C13 mph, NW100%10000m1008hPa59%
22-Feb-2024 12:00Overcast Clouds27°C13 mph, NW100%10000m1010hPa72%
22-Feb-2024 15:00Light Rain25°C7 mph, NW100%10000m1012hPa78%
22-Feb-2024 18:00Light Rain24°C11 mph, NW97%10000m1010hPa81%
22-Feb-2024 21:00Broken Clouds24°C7 mph, NW79%10000m1010hPa84%
23-Feb-2024 00:00Scattered Clouds28°C13 mph, W48%10000m1012hPa66%
23-Feb-2024 03:00Few Clouds33°C11 mph, W21%10000m1010hPa44%
23-Feb-2024 06:00Scattered Clouds36°C9 mph, SW40%10000m1008hPa36%
23-Feb-2024 09:00Overcast Clouds34°C11 mph, SW99%10000m1007hPa43%
23-Feb-2024 12:00Light Rain28°C11 mph, W97%10000m1010hPa64%
23-Feb-2024 15:00Broken Clouds26°C13 mph, W74%10000m1010hPa77%
23-Feb-2024 18:00Overcast Clouds25°C13 mph, W85%10000m1008hPa85%
23-Feb-2024 21:00Overcast Clouds24°C16 mph, W99%10000m1009hPa89%
24-Feb-2024 00:00Broken Clouds28°C20 mph, SW65%10000m1011hPa67%
24-Feb-2024 03:00Few Clouds34°C18 mph, SW14%10000m1008hPa48%
24-Feb-2024 06:00Scattered Clouds36°C13 mph, SW41%10000m1006hPa40%
24-Feb-2024 09:00Overcast Clouds35°C13 mph, SW100%10000m1005hPa40%
24-Feb-2024 12:00Moderate Rain25°C13 mph, N98%6015m1009hPa81%
24-Feb-2024 15:00Light Rain25°C13 mph, W100%10000m1009hPa87%
24-Feb-2024 18:00Light Rain24°C11 mph, SW100%10000m1007hPa80%
24-Feb-2024 21:00Light Rain24°C11 mph, SW100%10000m1008hPa80%
25-Feb-2024 00:00Overcast Clouds27°C18 mph, SW100%10000m1010hPa68%
25-Feb-2024 03:00Overcast Clouds33°C13 mph, S98%10000m1008hPa46%
25-Feb-2024 06:00Overcast Clouds36°C11 mph, SE99%10000m1005hPa31%
25-Feb-2024 09:00Overcast Clouds30°C13 mph, E96%10000m1005hPa45%
25-Feb-2024 12:00Overcast Clouds30°C2 mph, SE97%10000m1007hPa49%
25-Feb-2024 15:00Broken Clouds28°C4 mph, NE81%10000m1008hPa52%
25-Feb-2024 18:00Light Rain27°C4 mph, NE89%10000m1007hPa60%
25-Feb-2024 21:00Overcast Clouds26°C0 mph, S87%10000m1008hPa65%
26-Feb-2024 00:00Overcast Clouds30°C4 mph, S91%10000m1010hPa50%